Terminal Aerodrome Forecast
Issued by NWS

Home | Current Version | Previous Version | Text Only | Print | Product List | Glossary On
Versions: 1 2 3 4 5 6 7 8 9 10 11 12 13
000
FTUS41 KBTV 302337
TAFRUT
TAF
KRUT 302337Z 3100/3124 23007KT P6SM BKN080
     FM310300 16005KT P6SM FEW080
     FM311200 30006KT P6SM SKC
     FM311900 30010G17KT P6SM SCT060
      AMD LTD TO CLD VIS AND WIND=

USA.gov is the U.S. government's official web portal to all federal, state and local government web resources and services.